Time;durP1;ratioP1;P1;durP2;ratioP2;P2;SDS_P1;SDS_P2;PMS_P1;PMS_P2;Temp;Humidity;BMP_temperature;BMP_pressure;BME280_temperature;BME280_humidity;BME280_pressure;Samples;Min_cycle;Max_cycle;Signal;HPM_P1;HPM_P2
2023/03/27 00:00:22;;;;;;;12.33;11.73;;;7.30;99.90;;;;;;4726410;30;20553;-40
2023/03/27 00:02:48;;;;;;;12.30;11.70;;;7.30;99.90;;;;;;4725240;30;20452;-47
2023/03/27 00:05:15;;;;;;;12.13;11.53;;;7.30;99.90;;;;;;4726819;30;20436;-50
2023/03/27 00:07:41;;;;;;;10.77;10.27;;;7.30;99.90;;;;;;4726473;30;20628;-46
2023/03/27 00:10:11;;;;;;;11.60;11.00;;;7.30;99.90;;;;;;4729673;30;20485;-47
2023/03/27 00:12:37;;;;;;;11.23;10.73;;;7.30;99.90;;;;;;4736795;30;20497;-50
2023/03/27 00:15:04;;;;;;;11.67;11.17;;;7.20;99.90;;;;;;4729030;30;20452;-47
2023/03/27 00:17:29;;;;;;;11.17;10.57;;;7.20;99.90;;;;;;4730199;30;20471;-48
2023/03/27 00:19:55;;;;;;;11.70;11.10;;;7.10;99.90;;;;;;4737574;30;20477;-51
2023/03/27 00:22:20;;;;;;;11.57;10.97;;;7.10;99.90;;;;;;4742936;30;20210;-49
2023/03/27 00:24:46;;;;;;;11.23;10.73;;;7.10;99.90;;;;;;4733373;30;20194;-47
2023/03/27 00:27:12;;;;;;;11.40;10.83;;;7.10;99.90;;;;;;4737215;30;20190;-46
2023/03/27 00:29:38;;;;;;;11.67;11.00;;;7.10;99.90;;;;;;4736153;30;20201;-48
2023/03/27 00:32:04;;;;;;;11.20;10.70;;;7.10;99.90;;;;;;4731723;30;20508;-49
2023/03/27 00:34:30;;;;;;;11.10;10.60;;;7.10;99.90;;;;;;4736970;30;20654;-46
2023/03/27 00:36:56;;;;;;;11.50;11.00;;;7.10;99.90;;;;;;4741733;30;20505;-47
2023/03/27 00:39:22;;;;;;;11.80;11.10;;;7.10;99.90;;;;;;4727274;30;20222;-46
2023/03/27 00:41:48;;;;;;;11.90;11.20;;;7.10;99.90;;;;;;4726160;30;20515;-48
2023/03/27 00:44:29;;;;;;;12.33;11.70;;;7.10;99.90;;;;;;4734191;30;20439;-53
2023/03/27 00:46:56;;;;;;;12.90;12.20;;;7.20;99.90;;;;;;4728786;30;20489;-50
2023/03/27 00:49:25;;;;;;;13.30;12.50;;;7.20;99.90;;;;;;4726583;30;20446;-48
2023/03/27 00:51:52;;;;;;;13.80;13.00;;;7.20;99.90;;;;;;4725648;30;20588;-48
2023/03/27 00:54:25;;;;;;;14.07;13.07;;;7.20;99.90;;;;;;4732684;30;20459;-47
2023/03/27 00:56:55;;;;;;;13.70;12.90;;;7.20;99.90;;;;;;4734776;30;20478;-46
2023/03/27 00:59:26;;;;;;;15.43;14.23;;;7.20;99.90;;;;;;4723169;30;20498;-46
2023/03/27 01:01:52;;;;;;;17.37;16.03;;;7.20;99.90;;;;;;4733371;30;20531;-47
2023/03/27 01:04:20;;;;;;;19.53;17.83;;;7.10;99.90;;;;;;4741318;30;20429;-48
2023/03/27 01:06:47;;;;;;;19.52;17.65;;;6.90;99.90;;;;;;4731479;30;20240;-49
2023/03/27 01:09:13;;;;;;;19.95;18.15;;;6.70;99.90;;;;;;4726063;30;20201;-49
2023/03/27 01:11:59;;;;;;;20.57;18.80;;;6.60;99.90;;;;;;4731959;30;20197;-53
2023/03/27 01:14:35;;;;;;;19.73;18.05;;;6.50;99.90;;;;;;4731821;30;20258;-49
2023/03/27 01:17:16;;;;;;;19.30;17.45;;;6.30;99.90;;;;;;4725371;30;20216;-46
2023/03/27 01:19:52;;;;;;;18.88;17.20;;;6.10;99.90;;;;;;4740575;30;20242;-48
2023/03/27 01:22:55;;;;;;;18.52;16.80;;;5.90;99.90;;;;;;4738566;30;20275;-49
2023/03/27 01:25:44;;;;;;;18.40;16.80;;;5.80;99.90;;;;;;4740470;30;20203;-48
2023/03/27 01:28:45;;;;;;;17.13;15.80;;;5.60;99.90;;;;;;4734371;30;20753;-46
2023/03/27 01:31:37;;;;;;;17.00;15.77;;;5.40;99.90;;;;;;4730515;30;20749;-45
2023/03/27 01:34:32;;;;;;;16.60;15.27;;;5.20;99.90;;;;;;4727310;30;20216;-48
2023/03/27 01:37:06;;;;;;;16.33;15.10;;;5.10;99.90;;;;;;4737166;30;20305;-50
2023/03/27 01:39:45;;;;;;;15.80;14.55;;;5.00;99.90;;;;;;4721715;30;20224;-49
2023/03/27 01:42:28;;;;;;;15.10;14.00;;;4.90;99.90;;;;;;4741109;30;20184;-46
2023/03/27 01:45:05;;;;;;;15.02;14.07;;;4.70;99.90;;;;;;4719004;30;20603;-45
2023/03/27 01:47:45;;;;;;;15.43;14.38;;;4.50;99.90;;;;;;4728786;30;20379;-49
2023/03/27 01:50:22;;;;;;;14.98;13.88;;;4.40;99.90;;;;;;4735955;30;20337;-47
2023/03/27 01:53:31;;;;;;;15.18;14.07;;;4.30;99.90;;;;;;4726024;30;20201;-46
2023/03/27 01:56:08;;;;;;;16.02;14.43;;;4.20;99.90;;;;;;4733737;30;20216;-48
2023/03/27 01:58:45;;;;;;;15.27;14.10;;;4.20;99.90;;;;;;4731328;30;20673;-47
2023/03/27 02:01:22;;;;;;;15.77;14.45;;;4.00;99.90;;;;;;4741595;30;20196;-53
2023/03/27 02:03:52;;;;;;;15.10;14.00;;;3.90;99.90;;;;;;4739918;30;20200;-49
2023/03/27 02:06:39;;;;;;;15.18;14.07;;;3.90;99.90;;;;;;4739257;30;20192;-48
2023/03/27 02:09:23;;;;;;;14.85;13.95;;;3.80;99.90;;;;;;4735175;30;20207;-45
2023/03/27 02:11:55;;;;;;;14.80;13.82;;;3.60;99.90;;;;;;4736788;30;20215;-48
2023/03/27 02:14:26;;;;;;;14.10;13.30;;;3.50;99.90;;;;;;4741236;30;20193;-49
2023/03/27 02:16:57;;;;;;;14.13;13.23;;;3.50;99.90;;;;;;4738504;30;20558;-49
2023/03/27 02:19:28;;;;;;;14.95;13.85;;;3.40;99.90;;;;;;4730524;30;20258;-50
2023/03/27 02:21:54;;;;;;;15.55;14.43;;;3.40;99.90;;;;;;4737055;30;20201;-49
2023/03/27 02:24:21;;;;;;;14.87;13.67;;;3.50;99.90;;;;;;4737958;30;20211;-49
2023/03/27 02:26:51;;;;;;;14.80;13.88;;;3.50;99.90;;;;;;4737973;30;20195;-50
2023/03/27 02:29:29;;;;;;;15.20;14.00;;;3.50;99.90;;;;;;4732179;30;20192;-50
2023/03/27 02:32:16;;;;;;;15.50;14.18;;;3.50;99.90;;;;;;4733184;30;20664;-51
2023/03/27 02:34:49;;;;;;;16.30;15.20;;;3.40;99.90;;;;;;4740579;30;20188;-47
2023/03/27 02:37:24;;;;;;;15.38;14.38;;;3.40;99.90;;;;;;4729681;30;20224;-48
2023/03/27 02:40:09;;;;;;;16.23;14.95;;;3.40;99.90;;;;;;4736091;30;20690;-46
2023/03/27 02:42:46;;;;;;;14.65;13.65;;;3.40;99.90;;;;;;4729570;30;20255;-48
2023/03/27 02:45:23;;;;;;;15.50;14.50;;;3.40;99.90;;;;;;4737590;30;20193;-52
2023/03/27 02:48:06;;;;;;;15.60;14.30;;;3.40;99.90;;;;;;4729063;30;20232;-51
2023/03/27 02:50:43;;;;;;;15.23;14.23;;;3.40;99.90;;;;;;4734917;30;20189;-51
2023/03/27 02:53:11;;;;;;;15.30;14.30;;;3.40;99.90;;;;;;4735781;30;20205;-46
2023/03/27 02:55:43;;;;;;;16.70;15.30;;;3.30;99.90;;;;;;4736446;30;20222;-47
2023/03/27 02:58:15;;;;;;;15.88;14.70;;;3.30;99.90;;;;;;4736209;30;21040;-50
2023/03/27 03:00:47;;;;;;;16.25;14.95;;;3.20;99.90;;;;;;4737225;30;20196;-50
2023/03/27 03:03:26;;;;;;;16.05;14.65;;;3.20;99.90;;;;;;4732617;30;20208;-50
2023/03/27 03:05:56;;;;;;;15.85;14.75;;;3.20;99.90;;;;;;4740750;30;20519;-48
2023/03/27 03:08:22;;;;;;;15.38;14.35;;;3.30;99.90;;;;;;4724308;30;20283;-50
2023/03/27 03:10:48;;;;;;;17.00;15.50;;;3.30;99.90;;;;;;4735010;30;20200;-51
2023/03/27 03:13:14;;;;;;;16.17;14.87;;;3.20;99.90;;;;;;4734262;30;20207;-48
2023/03/27 03:15:40;;;;;;;15.57;14.40;;;3.20;99.90;;;;;;4734802;30;20427;-50
2023/03/27 03:18:06;;;;;;;16.17;15.03;;;3.20;99.90;;;;;;4737864;30;20223;-49
2023/03/27 03:20:35;;;;;;;16.27;14.95;;;3.20;99.90;;;;;;4733542;30;20416;-47
2023/03/27 03:23:01;;;;;;;15.95;14.60;;;3.20;99.90;;;;;;4728741;30;20190;-54
2023/03/27 03:25:29;;;;;;;15.75;14.55;;;3.20;99.90;;;;;;4740102;30;20287;-50
2023/03/27 03:27:57;;;;;;;16.63;15.35;;;3.20;99.90;;;;;;4734849;30;20197;-52
2023/03/27 03:30:29;;;;;;;17.08;15.57;;;3.20;99.90;;;;;;4738751;30;20189;-47
2023/03/27 03:32:55;;;;;;;16.13;14.80;;;3.20;99.90;;;;;;4725691;30;20206;-49
2023/03/27 03:35:23;;;;;;;16.13;15.10;;;3.20;99.90;;;;;;4738587;30;20219;-49
2023/03/27 03:37:50;;;;;;;16.30;15.00;;;3.10;99.90;;;;;;4728427;30;20296;-45
2023/03/27 03:40:17;;;;;;;17.05;15.38;;;3.10;99.90;;;;;;4740023;30;20192;-50
2023/03/27 03:42:47;;;;;;;17.73;15.88;;;3.10;99.90;;;;;;4726634;30;20193;-48
2023/03/27 03:45:13;;;;;;;16.42;15.23;;;3.20;99.90;;;;;;4737080;30;20191;-52
2023/03/27 03:47:39;;;;;;;17.53;16.03;;;3.20;99.90;;;;;;4738749;30;21042;-49
2023/03/27 03:50:06;;;;;;;16.47;15.10;;;3.20;99.90;;;;;;4731741;30;20680;-48
2023/03/27 03:52:31;;;;;;;18.70;16.88;;;3.30;99.90;;;;;;4737199;30;20450;-48
2023/03/27 03:54:57;;;;;;;18.23;16.63;;;3.30;99.90;;;;;;4738561;30;21200;-53
2023/03/27 03:57:23;;;;;;;16.40;15.30;;;3.40;99.90;;;;;;4737036;30;20247;-48
2023/03/27 03:59:48;;;;;;;17.50;16.10;;;3.40;99.90;;;;;;4728621;30;20221;-50
2023/03/27 04:02:27;;;;;;;17.30;15.90;;;3.40;99.90;;;;;;4725454;30;20530;-47
2023/03/27 04:04:57;;;;;;;17.10;15.80;;;3.40;99.90;;;;;;4726990;30;20229;-53
2023/03/27 04:07:24;;;;;;;18.23;16.50;;;3.40;99.90;;;;;;4726918;30;20197;-52
2023/03/27 04:09:50;;;;;;;18.02;16.73;;;3.40;99.90;;;;;;4729288;30;20201;-46
2023/03/27 04:12:17;;;;;;;17.35;15.85;;;3.40;99.90;;;;;;4731057;30;20201;-52
2023/03/27 04:14:43;;;;;;;18.10;16.50;;;3.40;99.90;;;;;;4728121;30;20287;-48
2023/03/27 04:17:10;;;;;;;17.98;16.48;;;3.40;99.90;;;;;;4727151;30;20208;-49
2023/03/27 04:19:35;;;;;;;17.67;16.05;;;3.50;99.90;;;;;;4728810;30;20746;-51
2023/03/27 04:22:02;;;;;;;18.93;17.10;;;3.50;99.90;;;;;;4724875;30;20193;-50
2023/03/27 04:24:30;;;;;;;19.48;17.35;;;3.50;99.90;;;;;;4724003;30;20212;-46
2023/03/27 04:27:03;;;;;;;17.67;16.35;;;3.50;99.90;;;;;;4724390;30;20650;-43
2023/03/27 04:29:29;;;;;;;18.50;17.05;;;3.50;99.90;;;;;;4737361;30;20199;-42
2023/03/27 04:31:58;;;;;;;18.05;16.70;;;3.50;99.90;;;;;;4730061;30;20570;-42
2023/03/27 04:34:24;;;;;;;18.67;17.02;;;3.50;99.90;;;;;;4724807;30;20193;-42
2023/03/27 04:36:51;;;;;;;18.10;16.70;;;3.60;99.90;;;;;;4726853;30;20202;-42
2023/03/27 04:39:17;;;;;;;19.40;17.58;;;3.60;99.90;;;;;;4729699;30;20208;-41
2023/03/27 04:41:49;;;;;;;19.20;17.38;;;3.60;99.90;;;;;;4726519;30;20193;-45
2023/03/27 04:44:18;;;;;;;18.02;16.55;;;3.60;99.90;;;;;;4730380;30;20177;-42
2023/03/27 04:46:47;;;;;;;20.23;18.05;;;3.60;99.90;;;;;;4728941;30;20237;-41
2023/03/27 04:49:14;;;;;;;18.65;16.98;;;3.50;99.90;;;;;;4726425;30;20652;-41
2023/03/27 04:51:40;;;;;;;18.48;16.60;;;3.60;99.90;;;;;;4732637;30;20235;-43
2023/03/27 04:54:07;;;;;;;19.40;17.40;;;3.60;99.90;;;;;;4734261;30;20193;-42
2023/03/27 04:56:33;;;;;;;19.20;17.50;;;3.60;99.90;;;;;;4727263;30;21149;-42
2023/03/27 04:59:00;;;;;;;20.00;17.90;;;3.60;99.90;;;;;;4728369;30;20233;-41
2023/03/27 05:01:25;;;;;;;19.20;17.45;;;3.60;99.90;;;;;;4734293;30;20208;-43
2023/03/27 05:03:52;;;;;;;19.60;17.77;;;3.60;99.90;;;;;;4736724;30;20589;-40
2023/03/27 05:06:18;;;;;;;20.27;18.25;;;3.60;99.90;;;;;;4741750;30;20590;-43
2023/03/27 05:08:43;;;;;;;18.63;16.70;;;3.70;99.90;;;;;;4741331;30;20192;-43
2023/03/27 05:11:09;;;;;;;19.10;17.23;;;3.80;99.90;;;;;;4741409;30;20196;-44
2023/03/27 05:13:35;;;;;;;17.93;16.27;;;3.80;99.90;;;;;;4738800;30;21041;-43
2023/03/27 05:16:01;;;;;;;17.50;16.00;;;3.80;99.90;;;;;;4723928;30;20332;-44
2023/03/27 05:18:29;;;;;;;17.23;15.83;;;3.70;99.90;;;;;;4736063;30;20212;-42
2023/03/27 05:20:56;;;;;;;17.35;15.85;;;3.80;99.90;;;;;;4741264;30;20466;-45
2023/03/27 05:23:22;;;;;;;18.15;16.60;;;3.70;99.90;;;;;;4725376;30;20200;-43
2023/03/27 05:25:47;;;;;;;18.13;16.20;;;3.70;99.90;;;;;;4741337;30;20741;-41
2023/03/27 05:28:13;;;;;;;17.17;15.97;;;3.70;99.90;;;;;;4741446;30;20189;-44
2023/03/27 05:30:41;;;;;;;17.60;16.20;;;3.80;99.90;;;;;;4741268;30;20193;-41
2023/03/27 05:33:07;;;;;;;16.60;15.40;;;3.80;99.90;;;;;;4731363;30;20209;-42
2023/03/27 05:35:33;;;;;;;17.25;15.95;;;3.80;99.90;;;;;;4740728;30;20665;-43
2023/03/27 05:37:59;;;;;;;16.33;15.23;;;3.70;99.90;;;;;;4740748;30;20280;-45
2023/03/27 05:40:26;;;;;;;17.80;16.40;;;3.70;99.90;;;;;;4728609;30;20197;-40
2023/03/27 05:42:53;;;;;;;16.88;15.60;;;3.70;99.90;;;;;;4724318;30;20251;-42
2023/03/27 05:45:19;;;;;;;15.85;14.75;;;3.60;99.90;;;;;;4727277;30;20201;-42
2023/03/27 05:47:51;;;;;;;16.87;15.50;;;3.60;99.90;;;;;;4725268;30;20349;-43
2023/03/27 05:50:18;;;;;;;17.02;15.70;;;3.60;99.90;;;;;;4727419;30;20960;-41
2023/03/27 05:52:44;;;;;;;16.42;15.23;;;3.70;99.90;;;;;;4731480;30;20188;-42
2023/03/27 05:55:11;;;;;;;16.80;15.60;;;3.60;99.90;;;;;;4737637;30;20210;-49
2023/03/27 05:57:40;;;;;;;14.40;13.40;;;3.60;99.90;;;;;;4732269;30;20740;-48
2023/03/27 06:00:12;;;;;;;16.20;15.00;;;3.60;99.90;;;;;;4738104;30;20212;-49
2023/03/27 06:02:42;;;;;;;15.70;14.52;;;3.50;99.90;;;;;;4736565;30;20190;-48
2023/03/27 06:05:15;;;;;;;16.20;15.10;;;3.50;99.90;;;;;;4738896;30;20230;-46
2023/03/27 06:07:45;;;;;;;16.00;14.70;;;3.50;99.90;;;;;;4740421;30;20220;-48
2023/03/27 06:10:16;;;;;;;15.55;14.45;;;3.50;99.90;;;;;;4740372;30;20208;-48
2023/03/27 06:12:43;;;;;;;15.48;14.10;;;3.50;99.90;;;;;;4740475;30;20189;-50
2023/03/27 06:15:10;;;;;;;16.17;14.98;;;3.50;99.90;;;;;;4721391;30;20209;-48
2023/03/27 06:17:38;;;;;;;15.93;14.80;;;3.50;99.90;;;;;;4735138;30;20205;-48
2023/03/27 06:20:12;;;;;;;15.98;14.65;;;3.50;99.90;;;;;;4728838;30;20256;-49
2023/03/27 06:22:50;;;;;;;15.45;14.45;;;3.50;99.90;;;;;;4740065;30;20184;-51
2023/03/27 06:25:17;;;;;;;14.60;13.50;;;3.50;99.90;;;;;;4740227;30;20196;-51
2023/03/27 06:27:45;;;;;;;14.82;13.82;;;3.50;99.90;;;;;;4739666;30;20197;-51
2023/03/27 06:30:12;;;;;;;14.40;13.20;;;3.50;99.90;;;;;;4740027;30;20289;-46
2023/03/27 06:32:49;;;;;;;13.85;12.80;;;3.50;99.90;;;;;;4740015;30;20708;-47
2023/03/27 06:35:16;;;;;;;14.82;13.70;;;3.50;99.90;;;;;;4730902;30;20200;-50
2023/03/27 06:37:45;;;;;;;14.25;13.15;;;3.50;99.90;;;;;;4727050;30;20197;-50
2023/03/27 06:40:23;;;;;;;14.77;13.77;;;3.50;99.90;;;;;;4739580;30;20757;-49
2023/03/27 06:42:55;;;;;;;15.52;14.02;;;3.60;99.90;;;;;;4737269;30;20641;-46
2023/03/27 06:45:22;;;;;;;15.45;14.35;;;3.50;99.90;;;;;;4728531;30;20205;-46
2023/03/27 06:47:53;;;;;;;15.23;14.05;;;3.60;99.90;;;;;;4733696;30;20232;-45
2023/03/27 06:50:20;;;;;;;13.98;12.98;;;3.60;99.90;;;;;;4731196;30;20251;-52
2023/03/27 06:52:49;;;;;;;14.55;13.55;;;3.60;99.90;;;;;;4720510;30;20216;-51
2023/03/27 06:55:17;;;;;;;14.50;13.50;;;3.60;99.90;;;;;;4735960;30;20653;-49
2023/03/27 06:57:44;;;;;;;14.75;13.43;;;3.60;99.90;;;;;;4739574;30;20935;-50
2023/03/27 07:00:15;;;;;;;13.80;13.00;;;3.60;99.90;;;;;;4739329;30;20284;-49
2023/03/27 07:02:40;;;;;;;13.18;12.15;;;3.60;99.90;;;;;;4735084;30;20542;-48
2023/03/27 07:05:07;;;;;;;12.80;12.00;;;3.70;99.90;;;;;;4736617;30;20196;-50
2023/03/27 07:07:33;;;;;;;12.15;11.45;;;3.70;99.90;;;;;;4739471;30;20196;-48
2023/03/27 07:09:59;;;;;;;12.60;11.80;;;3.60;99.90;;;;;;4738979;30;20221;-45
2023/03/27 07:12:25;;;;;;;12.23;11.63;;;3.80;99.90;;;;;;4739379;30;20873;-49
2023/03/27 07:14:50;;;;;;;11.70;11.00;;;3.80;99.90;;;;;;4728373;30;20463;-49
2023/03/27 07:17:16;;;;;;;12.17;11.23;;;3.90;99.90;;;;;;4739160;30;21033;-47
2023/03/27 07:19:41;;;;;;;11.83;11.13;;;4.00;99.90;;;;;;4736969;30;20564;-50
2023/03/27 07:22:07;;;;;;;11.40;10.70;;;4.10;99.90;;;;;;4739260;30;20200;-53
2023/03/27 07:24:33;;;;;;;11.53;10.93;;;4.20;99.90;;;;;;4739086;30;20278;-49
2023/03/27 07:26:58;;;;;;;10.80;10.20;;;4.30;99.90;;;;;;4739228;30;20196;-48
2023/03/27 07:29:24;;;;;;;11.03;10.43;;;4.40;99.90;;;;;;4718989;30;20307;-46
2023/03/27 07:31:50;;;;;;;11.30;10.80;;;4.40;99.90;;;;;;4721007;30;20205;-50
2023/03/27 07:34:16;;;;;;;10.95;10.35;;;4.20;99.90;;;;;;4739335;30;20185;-46
2023/03/27 07:36:42;;;;;;;10.90;10.40;;;4.20;99.90;;;;;;4731350;30;20204;-50
2023/03/27 07:39:08;;;;;;;10.80;10.30;;;4.20;99.90;;;;;;4724613;30;20197;-46
2023/03/27 07:41:34;;;;;;;10.70;10.20;;;4.20;99.90;;;;;;4723805;30;20292;-47
2023/03/27 07:44:00;;;;;;;11.00;10.40;;;4.10;99.90;;;;;;4726135;30;20802;-51
2023/03/27 07:46:26;;;;;;;10.65;10.15;;;4.00;99.90;;;;;;4726459;30;20272;-52
2023/03/27 07:48:54;;;;;;;20.38;18.77;;;4.10;99.90;;;;;;4724494;30;20490;-50
2023/03/27 07:51:19;;;;;;;14.40;13.50;;;4.10;99.90;;;;;;4724034;30;20695;-47
2023/03/27 07:53:46;;;;;;;13.23;12.50;;;4.20;99.90;;;;;;4724634;30;20190;-51
2023/03/27 07:56:12;;;;;;;12.77;12.07;;;4.10;99.90;;;;;;4727188;30;20308;-50
2023/03/27 07:58:38;;;;;;;11.65;11.15;;;4.10;99.90;;;;;;4730032;30;20250;-47
2023/03/27 08:01:04;;;;;;;14.60;13.80;;;4.10;99.90;;;;;;4726861;30;20198;-45
2023/03/27 08:03:30;;;;;;;11.90;11.30;;;4.00;99.90;;;;;;4726047;30;20201;-51
2023/03/27 08:05:58;;;;;;;11.40;10.70;;;4.10;99.90;;;;;;4724351;30;20263;-49
2023/03/27 08:08:25;;;;;;;14.90;13.90;;;4.20;99.90;;;;;;4726151;30;20571;-45
2023/03/27 08:10:53;;;;;;;13.98;13.18;;;4.20;99.90;;;;;;4727625;30;20201;-47
2023/03/27 08:13:19;;;;;;;11.30;10.60;;;4.30;99.90;;;;;;4730736;30;20288;-48
2023/03/27 08:15:45;;;;;;;11.77;11.17;;;4.30;99.90;;;;;;4728386;30;20201;-50
2023/03/27 08:18:11;;;;;;;13.85;13.10;;;4.50;99.90;;;;;;4727655;30;20182;-49
2023/03/27 08:20:37;;;;;;;18.10;16.97;;;4.70;99.90;;;;;;4728470;30;20258;-50
2023/03/27 08:23:03;;;;;;;12.77;12.10;;;4.80;99.90;;;;;;4729567;30;20185;-47
2023/03/27 08:25:31;;;;;;;12.20;11.60;;;4.80;99.90;;;;;;4728455;30;20676;-47
2023/03/27 08:28:01;;;;;;;11.15;10.55;;;4.70;99.90;;;;;;4730189;30;20466;-49
2023/03/27 08:30:27;;;;;;;13.23;12.52;;;4.50;99.90;;;;;;4728780;30;20199;-51
2023/03/27 08:32:53;;;;;;;13.40;12.70;;;4.50;99.90;;;;;;4730011;30;20197;-50
2023/03/27 08:35:19;;;;;;;12.50;11.90;;;4.50;99.90;;;;;;4731291;30;20515;-49
2023/03/27 08:37:45;;;;;;;11.80;11.30;;;4.70;99.90;;;;;;4729849;30;20258;-49
2023/03/27 08:40:27;;;;;;;13.23;12.53;;;4.90;99.90;;;;;;4728084;30;20220;-53
2023/03/27 08:42:57;;;;;;;11.95;11.45;;;5.10;99.90;;;;;;4729072;30;20459;-44
2023/03/27 08:45:48;;;;;;;10.55;10.05;;;5.40;99.00;;;;;;4727774;30;20263;-47
2023/03/27 08:48:22;;;;;;;11.00;10.50;;;5.80;99.70;;;;;;4726625;30;20259;-49
2023/03/27 08:51:18;;;;;;;12.20;11.60;;;6.20;98.40;;;;;;4728336;30;20187;-51
2023/03/27 08:53:50;;;;;;;11.60;11.02;;;6.90;94.40;;;;;;4730979;30;20228;-47
2023/03/27 08:56:19;;;;;;;12.00;11.40;;;7.50;93.60;;;;;;4728792;30;20647;-49
2023/03/27 08:58:45;;;;;;;11.80;11.23;;;7.90;91.30;;;;;;4728291;30;20692;-47
2023/03/27 09:01:26;;;;;;;11.43;10.93;;;8.10;88.90;;;;;;4727264;30;20499;-51
2023/03/27 09:03:56;;;;;;;11.50;11.00;;;8.10;90.60;;;;;;4727252;30;20433;-49
2023/03/27 09:06:26;;;;;;;10.80;10.30;;;7.70;83.00;;;;;;4729113;30;20452;-49
2023/03/27 09:09:18;;;;;;;10.90;10.30;;;7.30;76.60;;;;;;4727431;30;20819;-49
2023/03/27 09:11:52;;;;;;;11.27;10.75;;;6.80;76.20;;;;;;4725606;30;20930;-48
2023/03/27 09:14:42;;;;;;;11.50;11.00;;;7.00;81.40;;;;;;4727941;30;20188;-47
2023/03/27 09:17:27;;;;;;;11.80;11.30;;;7.70;85.00;;;;;;4728750;30;20435;-51
2023/03/27 09:20:07;;;;;;;11.90;11.23;;;8.00;79.60;;;;;;4727856;30;20526;-49
2023/03/27 09:22:46;;;;;;;12.13;11.40;;;8.60;82.80;;;;;;4727001;30;20422;-48
2023/03/27 09:25:33;;;;;;;11.43;10.83;;;9.20;72.00;;;;;;4726720;30;20435;-50
2023/03/27 09:28:00;;;;;;;11.80;11.20;;;9.40;74.50;;;;;;4729129;30;20439;-48
2023/03/27 09:30:32;;;;;;;12.30;11.60;;;9.70;76.60;;;;;;4727212;30;20448;-51
2023/03/27 09:33:04;;;;;;;11.63;11.07;;;10.20;71.20;;;;;;4728494;30;20943;-49
2023/03/27 09:35:31;;;;;;;11.60;11.10;;;10.30;67.30;;;;;;4736333;30;21096;-48
2023/03/27 09:38:02;;;;;;;11.67;11.07;;;10.00;64.50;;;;;;4740835;30;20801;-50
2023/03/27 09:40:57;;;;;;;12.10;11.50;;;9.40;66.00;;;;;;4727706;30;20467;-45
2023/03/27 09:43:43;;;;;;;12.40;11.80;;;8.80;76.70;;;;;;4705343;30;20491;-46
2023/03/27 09:46:16;;;;;;;11.67;11.07;;;8.30;84.40;;;;;;4738700;30;20555;-47
2023/03/27 09:48:49;;;;;;;12.07;11.47;;;7.60;90.80;;;;;;4740527;30;20678;-49
2023/03/27 09:51:38;;;;;;;12.93;12.20;;;7.20;93.70;;;;;;4735990;30;20425;-51
2023/03/27 09:54:04;;;;;;;12.53;11.77;;;7.40;95.00;;;;;;4739927;30;20432;-49
2023/03/27 09:56:33;;;;;;;11.93;11.33;;;7.70;97.10;;;;;;4740367;30;20873;-48
2023/03/27 09:58:59;;;;;;;12.53;11.93;;;8.30;96.20;;;;;;4740568;30;20440;-52
2023/03/27 10:01:33;;;;;;;12.27;11.60;;;9.10;94.90;;;;;;4722092;30;20447;-51
2023/03/27 10:03:59;;;;;;;11.70;11.10;;;9.90;85.50;;;;;;4740281;30;20430;-49
2023/03/27 10:06:29;;;;;;;11.80;11.20;;;10.30;74.60;;;;;;4740071;30;20444;-48
2023/03/27 10:08:59;;;;;;;11.77;11.17;;;10.90;71.40;;;;;;4739019;30;20513;-47
2023/03/27 10:11:31;;;;;;;12.27;11.67;;;11.40;60.10;;;;;;4740109;30;20439;-51
2023/03/27 10:13:59;;;;;;;11.83;11.20;;;11.30;59.00;;;;;;4729655;30;21385;-52
2023/03/27 10:16:26;;;;;;;11.83;11.30;;;11.20;58.50;;;;;;4740415;30;20498;-48
2023/03/27 10:18:55;;;;;;;11.80;11.30;;;11.50;57.70;;;;;;4740299;30;21038;-49
2023/03/27 10:21:34;;;;;;;11.90;11.30;;;10.90;54.50;;;;;;4740098;30;20440;-52
2023/03/27 10:24:05;;;;;;;12.03;11.30;;;10.70;58.70;;;;;;4740572;30;20431;-49
2023/03/27 10:26:35;;;;;;;12.27;11.67;;;10.20;59.60;;;;;;4729752;30;20807;-51
2023/03/27 10:29:20;;;;;;;12.90;11.80;;;9.90;63.20;;;;;;4740009;30;20843;-52
2023/03/27 10:31:56;;;;;;;12.00;11.30;;;8.70;71.40;;;;;;4740121;30;20434;-45
2023/03/27 10:34:38;;;;;;;11.77;10.97;;;7.90;86.40;;;;;;4739962;30;20437;-50
2023/03/27 10:37:30;;;;;;;14.43;13.53;;;7.40;90.50;;;;;;4739999;30;20866;-49
2023/03/27 10:39:59;;;;;;;15.93;15.03;;;7.40;88.30;;;;;;4739546;30;20435;-49
2023/03/27 10:42:27;;;;;;;11.87;11.17;;;8.20;92.10;;;;;;4737849;30;20453;-49
2023/03/27 10:44:56;;;;;;;12.73;12.03;;;9.30;82.60;;;;;;4739150;30;20434;-48
2023/03/27 10:47:29;;;;;;;11.63;11.03;;;9.60;72.60;;;;;;4737056;30;20485;-51
2023/03/27 10:50:07;;;;;;;13.13;12.53;;;10.30;65.50;;;;;;4729409;30;20485;-50
2023/03/27 10:52:41;;;;;;;12.33;11.63;;;10.50;65.70;;;;;;4728247;30;20450;-45
2023/03/27 10:55:20;;;;;;;12.47;11.90;;;10.30;60.50;;;;;;4725263;30;20440;-46
2023/03/27 10:57:52;;;;;;;11.70;11.10;;;10.50;59.90;;;;;;4725927;30;20441;-45
2023/03/27 11:00:42;;;;;;;12.77;11.90;;;10.60;57.40;;;;;;4728695;30;20445;-45
2023/03/27 11:03:21;;;;;;;11.53;10.90;;;11.30;52.40;;;;;;4724571;30;20463;-49
2023/03/27 11:05:52;;;;;;;11.53;11.03;;;11.40;49.20;;;;;;4729218;30;20919;-47
2023/03/27 11:08:26;;;;;;;11.10;10.60;;;11.10;47.50;;;;;;4739370;30;20873;-46
2023/03/27 11:10:56;;;;;;;11.53;10.80;;;10.80;49.90;;;;;;4737623;30;20544;-52
2023/03/27 11:13:28;;;;;;;11.40;10.80;;;10.20;48.10;;;;;;4739379;30;20438;-47
2023/03/27 11:16:22;;;;;;;10.87;10.37;;;9.80;51.90;;;;;;4739626;30;20431;-50
2023/03/27 11:19:01;;;;;;;11.30;10.80;;;9.50;52.20;;;;;;4732435;30;20434;-47
2023/03/27 11:21:35;;;;;;;12.00;11.23;;;9.20;52.40;;;;;;4732860;30;20808;-46
2023/03/27 11:24:04;;;;;;;11.70;10.90;;;9.00;53.60;;;;;;4726364;30;20458;-48
2023/03/27 11:26:52;;;;;;;11.60;10.70;;;9.00;52.70;;;;;;4725974;30;20707;-49
2023/03/27 11:29:27;;;;;;;11.63;11.13;;;9.20;53.90;;;;;;4727062;30;20492;-50
2023/03/27 11:31:55;;;;;;;11.03;10.43;;;9.20;55.70;;;;;;4726779;30;21092;-53
2023/03/27 11:34:36;;;;;;;11.47;10.87;;;9.60;57.20;;;;;;4736236;30;20477;-47
2023/03/27 11:37:19;;;;;;;11.83;11.03;;;10.20;50.70;;;;;;4732537;30;20456;-50
2023/03/27 11:40:00;;;;;;;11.47;10.97;;;10.70;48.20;;;;;;4729732;30;20438;-46
2023/03/27 11:42:28;;;;;;;11.73;11.10;;;11.10;47.80;;;;;;4729475;30;20454;-54
2023/03/27 11:44:54;;;;;;;11.77;11.17;;;11.80;46.60;;;;;;4738149;30;20562;-48
2023/03/27 11:47:41;;;;;;;11.17;10.57;;;12.30;42.70;;;;;;4741885;30;21057;-52
2023/03/27 11:50:30;;;;;;;11.63;11.00;;;12.50;40.10;;;;;;4743057;30;20601;-51
2023/03/27 11:53:20;;;;;;;11.67;11.07;;;12.30;39.40;;;;;;4730904;30;20459;-43
2023/03/27 11:55:51;;;;;;;11.50;10.70;;;12.30;38.60;;;;;;4742006;30;20926;-41
2023/03/27 11:58:31;;;;;;;10.70;10.20;;;11.80;39.80;;;;;;4734153;30;20553;-40
2023/03/27 12:01:25;;;;;;;11.10;10.60;;;11.60;41.70;;;;;;4733527;30;20461;-41
2023/03/27 12:04:14;;;;;;;11.53;10.97;;;11.50;42.20;;;;;;4740077;30;21039;-40
2023/03/27 12:07:00;;;;;;;11.37;10.80;;;11.00;44.80;;;;;;4738371;30;20499;-41
2023/03/27 12:10:03;;;;;;;11.30;10.80;;;10.30;44.80;;;;;;4729798;30;20490;-40
2023/03/27 12:12:54;;;;;;;11.03;10.53;;;9.90;49.20;;;;;;4740055;30;20434;-41
2023/03/27 12:15:20;;;;;;;10.90;10.30;;;10.20;50.30;;;;;;4736483;30;20430;-41
2023/03/27 12:18:27;;;;;;;11.17;10.53;;;11.30;48.10;;;;;;4744049;30;20449;-39
2023/03/27 12:21:43;;;;;;;11.20;10.60;;;12.50;43.40;;;;;;4722429;30;20467;-40
2023/03/27 12:24:18;;;;;;;11.27;10.67;;;13.90;44.50;;;;;;4704897;30;20461;-43
2023/03/27 12:26:56;;;;;;;11.60;11.00;;;15.10;40.40;;;;;;4733346;30;20457;-42
2023/03/27 12:29:33;;;;;;;11.53;10.93;;;15.60;37.30;;;;;;4738851;30;21221;-40
2023/03/27 12:32:14;;;;;;;11.43;10.83;;;16.00;35.30;;;;;;4745510;30;20431;-44
2023/03/27 12:34:51;;;;;;;11.20;10.60;;;16.60;33.10;;;;;;4744872;30;20426;-41
2023/03/27 12:37:22;;;;;;;11.30;10.70;;;16.80;29.50;;;;;;4736841;30;20577;-43
2023/03/27 12:39:52;;;;;;;11.33;10.80;;;17.30;29.70;;;;;;4730330;30;21733;-42
2023/03/27 12:42:42;;;;;;;11.10;10.70;;;17.00;28.20;;;;;;4745009;30;21290;-43
2023/03/27 12:45:21;;;;;;;11.43;10.83;;;16.50;28.20;;;;;;4733427;30;20454;-47
2023/03/27 12:48:05;;;;;;;11.93;11.23;;;15.60;28.30;;;;;;4734668;30;21303;-41
2023/03/27 12:50:38;;;;;;;11.07;10.57;;;15.10;31.40;;;;;;4744666;30;20654;-43
2023/03/27 12:53:04;;;;;;;10.90;10.37;;;14.90;32.00;;;;;;4739326;30;20446;-43
2023/03/27 12:55:35;;;;;;;10.83;10.30;;;14.80;31.30;;;;;;4736890;30;20460;-42
2023/03/27 12:58:03;;;;;;;11.30;10.70;;;14.90;31.90;;;;;;4741251;30;20197;-42
2023/03/27 13:00:29;;;;;;;11.57;10.77;;;15.30;29.50;;;;;;4742094;30;20442;-40